sensor_id;sensor_type;location;lat;lon;timestamp;P1;durP1;ratioP1;P2;durP2;ratioP2
53775;SDS011;44276;49.534;6.378;2024-01-07T00:01:51;20.42;;;8.90;;
53775;SDS011;44276;49.534;6.378;2024-01-07T00:04:20;17.50;;;9.00;;
53775;SDS011;44276;49.534;6.378;2024-01-07T00:06:51;8.93;;;4.95;;
53775;SDS011;44276;49.534;6.378;2024-01-07T00:09:22;13.05;;;6.78;;
53775;SDS011;44276;49.534;6.378;2024-01-07T00:11:51;14.55;;;7.10;;
53775;SDS011;44276;49.534;6.378;2024-01-07T00:14:20;9.65;;;5.32;;
53775;SDS011;44276;49.534;6.378;2024-01-07T00:16:50;14.38;;;6.68;;
53775;SDS011;44276;49.534;6.378;2024-01-07T00:19:31;11.02;;;4.45;;
53775;SDS011;44276;49.534;6.378;2024-01-07T00:22:05;9.57;;;4.60;;
53775;SDS011;44276;49.534;6.378;2024-01-07T00:24:35;12.05;;;5.50;;
53775;SDS011;44276;49.534;6.378;2024-01-07T00:27:08;11.05;;;4.93;;
53775;SDS011;44276;49.534;6.378;2024-01-07T00:29:36;10.50;;;5.18;;
53775;SDS011;44276;49.534;6.378;2024-01-07T00:32:08;8.45;;;4.32;;
53775;SDS011;44276;49.534;6.378;2024-01-07T00:34:40;11.60;;;5.43;;
53775;SDS011;44276;49.534;6.378;2024-01-07T00:37:12;9.15;;;4.32;;
53775;SDS011;44276;49.534;6.378;2024-01-07T00:39:42;9.60;;;5.85;;
53775;SDS011;44276;49.534;6.378;2024-01-07T00:42:17;9.25;;;4.35;;
53775;SDS011;44276;49.534;6.378;2024-01-07T00:44:46;10.38;;;4.97;;
53775;SDS011;44276;49.534;6.378;2024-01-07T00:47:17;11.48;;;5.45;;
53775;SDS011;44276;49.534;6.378;2024-01-07T00:49:49;9.45;;;4.65;;
53775;SDS011;44276;49.534;6.378;2024-01-07T00:52:23;11.93;;;5.43;;
53775;SDS011;44276;49.534;6.378;2024-01-07T00:54:56;10.13;;;5.32;;
53775;SDS011;44276;49.534;6.378;2024-01-07T00:57:29;9.45;;;4.15;;
53775;SDS011;44276;49.534;6.378;2024-01-07T01:00:11;9.15;;;4.53;;
53775;SDS011;44276;49.534;6.378;2024-01-07T01:02:41;12.68;;;5.07;;
53775;SDS011;44276;49.534;6.378;2024-01-07T01:05:13;11.80;;;4.97;;
53775;SDS011;44276;49.534;6.378;2024-01-07T01:07:48;12.15;;;5.55;;
53775;SDS011;44276;49.534;6.378;2024-01-07T01:10:20;8.07;;;5.18;;
53775;SDS011;44276;49.534;6.378;2024-01-07T01:12:56;9.35;;;4.90;;
53775;SDS011;44276;49.534;6.378;2024-01-07T01:15:28;9.27;;;4.70;;
53775;SDS011;44276;49.534;6.378;2024-01-07T01:18:02;9.43;;;4.45;;
53775;SDS011;44276;49.534;6.378;2024-01-07T01:20:34;8.55;;;5.05;;
53775;SDS011;44276;49.534;6.378;2024-01-07T01:23:12;13.43;;;4.95;;
53775;SDS011;44276;49.534;6.378;2024-01-07T01:25:51;9.77;;;4.30;;
53775;SDS011;44276;49.534;6.378;2024-01-07T01:28:20;7.40;;;3.58;;
53775;SDS011;44276;49.534;6.378;2024-01-07T01:31:06;14.20;;;4.70;;
53775;SDS011;44276;49.534;6.378;2024-01-07T01:33:37;5.30;;;3.00;;
53775;SDS011;44276;49.534;6.378;2024-01-07T01:36:07;7.00;;;3.92;;
53775;SDS011;44276;49.534;6.378;2024-01-07T01:38:42;7.30;;;3.75;;
53775;SDS011;44276;49.534;6.378;2024-01-07T01:41:20;8.70;;;3.40;;
53775;SDS011;44276;49.534;6.378;2024-01-07T01:44:10;4.88;;;2.85;;
53775;SDS011;44276;49.534;6.378;2024-01-07T01:46:42;4.97;;;2.85;;
53775;SDS011;44276;49.534;6.378;2024-01-07T01:49:19;8.25;;;3.72;;
53775;SDS011;44276;49.534;6.378;2024-01-07T01:51:56;4.93;;;3.10;;
53775;SDS011;44276;49.534;6.378;2024-01-07T01:54:35;7.65;;;3.97;;
53775;SDS011;44276;49.534;6.378;2024-01-07T01:57:15;6.43;;;2.97;;
53775;SDS011;44276;49.534;6.378;2024-01-07T01:59:52;4.72;;;3.05;;
53775;SDS011;44276;49.534;6.378;2024-01-07T02:02:22;7.68;;;3.97;;
53775;SDS011;44276;49.534;6.378;2024-01-07T02:04:57;7.82;;;4.13;;
53775;SDS011;44276;49.534;6.378;2024-01-07T02:07:28;8.35;;;3.33;;
53775;SDS011;44276;49.534;6.378;2024-01-07T02:10:00;6.78;;;3.45;;
53775;SDS011;44276;49.534;6.378;2024-01-07T02:12:37;7.07;;;3.15;;
53775;SDS011;44276;49.534;6.378;2024-01-07T02:15:07;4.88;;;2.92;;
53775;SDS011;44276;49.534;6.378;2024-01-07T02:17:39;4.32;;;2.42;;
53775;SDS011;44276;49.534;6.378;2024-01-07T02:20:11;5.82;;;3.10;;
53775;SDS011;44276;49.534;6.378;2024-01-07T02:22:43;6.28;;;2.63;;
53775;SDS011;44276;49.534;6.378;2024-01-07T02:25:17;6.63;;;3.03;;
53775;SDS011;44276;49.534;6.378;2024-01-07T02:27:52;5.30;;;2.50;;
53775;SDS011;44276;49.534;6.378;2024-01-07T02:30:22;5.25;;;2.45;;
53775;SDS011;44276;49.534;6.378;2024-01-07T02:33:02;4.57;;;2.67;;
53775;SDS011;44276;49.534;6.378;2024-01-07T02:35:34;6.53;;;3.35;;
53775;SDS011;44276;49.534;6.378;2024-01-07T02:38:04;5.45;;;2.92;;
53775;SDS011;44276;49.534;6.378;2024-01-07T02:40:35;5.22;;;3.17;;
53775;SDS011;44276;49.534;6.378;2024-01-07T02:43:04;6.22;;;3.33;;
53775;SDS011;44276;49.534;6.378;2024-01-07T02:45:41;8.73;;;3.22;;
53775;SDS011;44276;49.534;6.378;2024-01-07T02:48:18;7.30;;;3.30;;
53775;SDS011;44276;49.534;6.378;2024-01-07T02:51:00;4.35;;;2.53;;
53775;SDS011;44276;49.534;6.378;2024-01-07T02:53:32;8.23;;;3.50;;
53775;SDS011;44276;49.534;6.378;2024-01-07T02:56:14;9.77;;;4.22;;
53775;SDS011;44276;49.534;6.378;2024-01-07T02:58:51;8.32;;;3.97;;
53775;SDS011;44276;49.534;6.378;2024-01-07T03:01:21;7.40;;;3.70;;
53775;SDS011;44276;49.534;6.378;2024-01-07T03:03:59;9.75;;;4.15;;
53775;SDS011;44276;49.534;6.378;2024-01-07T03:06:32;7.20;;;3.63;;
53775;SDS011;44276;49.534;6.378;2024-01-07T03:09:04;9.73;;;4.80;;
53775;SDS011;44276;49.534;6.378;2024-01-07T03:11:35;7.00;;;3.72;;
53775;SDS011;44276;49.534;6.378;2024-01-07T03:14:13;10.52;;;4.30;;
53775;SDS011;44276;49.534;6.378;2024-01-07T03:19:38;9.15;;;4.32;;
53775;SDS011;44276;49.534;6.378;2024-01-07T03:22:09;8.48;;;5.00;;
53775;SDS011;44276;49.534;6.378;2024-01-07T03:24:49;8.60;;;4.05;;
53775;SDS011;44276;49.534;6.378;2024-01-07T03:27:19;6.35;;;3.13;;
53775;SDS011;44276;49.534;6.378;2024-01-07T03:29:53;11.38;;;5.45;;
53775;SDS011;44276;49.534;6.378;2024-01-07T03:32:22;9.82;;;4.85;;
53775;SDS011;44276;49.534;6.378;2024-01-07T03:34:55;8.23;;;4.63;;
53775;SDS011;44276;49.534;6.378;2024-01-07T03:37:26;7.90;;;4.85;;
53775;SDS011;44276;49.534;6.378;2024-01-07T03:39:58;9.43;;;5.07;;
53775;SDS011;44276;49.534;6.378;2024-01-07T03:42:28;10.10;;;5.05;;
53775;SDS011;44276;49.534;6.378;2024-01-07T03:45:06;11.70;;;5.43;;
53775;SDS011;44276;49.534;6.378;2024-01-07T03:47:38;9.27;;;4.45;;
53775;SDS011;44276;49.534;6.378;2024-01-07T03:50:10;10.18;;;3.92;;
53775;SDS011;44276;49.534;6.378;2024-01-07T03:52:43;9.98;;;4.13;;
53775;SDS011;44276;49.534;6.378;2024-01-07T03:55:12;11.88;;;5.95;;
53775;SDS011;44276;49.534;6.378;2024-01-07T03:57:48;10.45;;;5.13;;
53775;SDS011;44276;49.534;6.378;2024-01-07T04:00:21;10.40;;;4.68;;
53775;SDS011;44276;49.534;6.378;2024-01-07T04:02:51;9.18;;;4.65;;
53775;SDS011;44276;49.534;6.378;2024-01-07T04:05:21;10.00;;;4.50;;
53775;SDS011;44276;49.534;6.378;2024-01-07T04:08:14;10.02;;;4.85;;
53775;SDS011;44276;49.534;6.378;2024-01-07T04:10:48;11.13;;;5.18;;
53775;SDS011;44276;49.534;6.378;2024-01-07T04:13:19;9.68;;;4.68;;
53775;SDS011;44276;49.534;6.378;2024-01-07T04:15:59;13.80;;;6.28;;
53775;SDS011;44276;49.534;6.378;2024-01-07T04:18:37;10.25;;;4.32;;
53775;SDS011;44276;49.534;6.378;2024-01-07T04:21:13;7.03;;;3.42;;
53775;SDS011;44276;49.534;6.378;2024-01-07T04:23:52;11.40;;;4.57;;
53775;SDS011;44276;49.534;6.378;2024-01-07T04:26:30;12.13;;;5.13;;
53775;SDS011;44276;49.534;6.378;2024-01-07T04:29:08;8.00;;;4.75;;
53775;SDS011;44276;49.534;6.378;2024-01-07T04:31:37;9.25;;;5.13;;
53775;SDS011;44276;49.534;6.378;2024-01-07T04:34:13;13.07;;;5.45;;
53775;SDS011;44276;49.534;6.378;2024-01-07T04:36:46;13.85;;;5.95;;
53775;SDS011;44276;49.534;6.378;2024-01-07T04:39:17;10.30;;;5.28;;
53775;SDS011;44276;49.534;6.378;2024-01-07T04:41:47;12.00;;;5.57;;
53775;SDS011;44276;49.534;6.378;2024-01-07T04:44:17;9.60;;;5.32;;
53775;SDS011;44276;49.534;6.378;2024-01-07T04:46:52;10.57;;;5.28;;
53775;SDS011;44276;49.534;6.378;2024-01-07T04:49:25;12.27;;;4.45;;
53775;SDS011;44276;49.534;6.378;2024-01-07T04:52:00;10.02;;;4.57;;
53775;SDS011;44276;49.534;6.378;2024-01-07T04:54:36;9.60;;;4.13;;
53775;SDS011;44276;49.534;6.378;2024-01-07T04:57:11;15.25;;;5.10;;
53775;SDS011;44276;49.534;6.378;2024-01-07T04:59:52;11.32;;;5.00;;
53775;SDS011;44276;49.534;6.378;2024-01-07T05:02:22;9.43;;;5.78;;
53775;SDS011;44276;49.534;6.378;2024-01-07T05:05:07;13.65;;;5.78;;
53775;SDS011;44276;49.534;6.378;2024-01-07T05:07:38;13.88;;;5.03;;
53775;SDS011;44276;49.534;6.378;2024-01-07T05:10:12;10.82;;;4.72;;
53775;SDS011;44276;49.534;6.378;2024-01-07T05:12:47;9.80;;;5.90;;
53775;SDS011;44276;49.534;6.378;2024-01-07T05:15:33;9.25;;;4.07;;
53775;SDS011;44276;49.534;6.378;2024-01-07T05:18:08;10.57;;;5.33;;
53775;SDS011;44276;49.534;6.378;2024-01-07T05:20:39;10.68;;;4.88;;
53775;SDS011;44276;49.534;6.378;2024-01-07T05:23:13;10.25;;;5.53;;
53775;SDS011;44276;49.534;6.378;2024-01-07T05:25:43;11.18;;;5.97;;
53775;SDS011;44276;49.534;6.378;2024-01-07T05:28:23;12.10;;;6.40;;
53775;SDS011;44276;49.534;6.378;2024-01-07T05:31:06;12.02;;;5.90;;
53775;SDS011;44276;49.534;6.378;2024-01-07T05:33:47;12.15;;;4.53;;
53775;SDS011;44276;49.534;6.378;2024-01-07T05:36:29;12.93;;;6.47;;
53775;SDS011;44276;49.534;6.378;2024-01-07T05:39:01;9.17;;;4.87;;
53775;SDS011;44276;49.534;6.378;2024-01-07T05:41:31;9.23;;;5.00;;
53775;SDS011;44276;49.534;6.378;2024-01-07T05:44:13;11.55;;;5.40;;
53775;SDS011;44276;49.534;6.378;2024-01-07T05:46:45;12.60;;;5.38;;
53775;SDS011;44276;49.534;6.378;2024-01-07T05:49:30;14.50;;;6.60;;
53775;SDS011;44276;49.534;6.378;2024-01-07T05:52:12;11.60;;;5.65;;
53775;SDS011;44276;49.534;6.378;2024-01-07T05:54:55;16.88;;;7.82;;
53775;SDS011;44276;49.534;6.378;2024-01-07T05:57:38;12.38;;;6.47;;
53775;SDS011;44276;49.534;6.378;2024-01-07T06:00:13;12.75;;;6.47;;
53775;SDS011;44276;49.534;6.378;2024-01-07T06:02:45;11.30;;;5.88;;
53775;SDS011;44276;49.534;6.378;2024-01-07T06:05:28;12.18;;;5.43;;
53775;SDS011;44276;49.534;6.378;2024-01-07T06:08:05;16.30;;;6.32;;
53775;SDS011;44276;49.534;6.378;2024-01-07T06:10:43;13.40;;;5.10;;
53775;SDS011;44276;49.534;6.378;2024-01-07T06:13:22;12.10;;;5.70;;
53775;SDS011;44276;49.534;6.378;2024-01-07T06:15:58;10.20;;;5.00;;
53775;SDS011;44276;49.534;6.378;2024-01-07T06:18:37;12.60;;;5.75;;
53775;SDS011;44276;49.534;6.378;2024-01-07T06:21:13;13.95;;;6.50;;
53775;SDS011;44276;49.534;6.378;2024-01-07T06:23:51;12.63;;;6.20;;
53775;SDS011;44276;49.534;6.378;2024-01-07T06:26:29;15.90;;;6.55;;
53775;SDS011;44276;49.534;6.378;2024-01-07T06:29:11;13.90;;;5.68;;
53775;SDS011;44276;49.534;6.378;2024-01-07T06:31:44;13.27;;;6.50;;
53775;SDS011;44276;49.534;6.378;2024-01-07T06:34:22;10.38;;;6.20;;
53775;SDS011;44276;49.534;6.378;2024-01-07T06:36:55;15.82;;;7.13;;
53775;SDS011;44276;49.534;6.378;2024-01-07T06:39:42;12.73;;;5.53;;
53775;SDS011;44276;49.534;6.378;2024-01-07T06:42:15;12.05;;;5.82;;
53775;SDS011;44276;49.534;6.378;2024-01-07T06:44:49;13.98;;;6.30;;
53775;SDS011;44276;49.534;6.378;2024-01-07T06:47:19;14.75;;;6.10;;
53775;SDS011;44276;49.534;6.378;2024-01-07T06:49:54;20.13;;;6.43;;
53775;SDS011;44276;49.534;6.378;2024-01-07T06:52:27;14.25;;;5.72;;
53775;SDS011;44276;49.534;6.378;2024-01-07T06:54:56;15.18;;;6.85;;
53775;SDS011;44276;49.534;6.378;2024-01-07T06:57:34;8.10;;;3.77;;
53775;SDS011;44276;49.534;6.378;2024-01-07T07:00:14;15.25;;;7.75;;
53775;SDS011;44276;49.534;6.378;2024-01-07T07:02:52;14.77;;;7.95;;
53775;SDS011;44276;49.534;6.378;2024-01-07T07:05:39;13.20;;;5.45;;
53775;SDS011;44276;49.534;6.378;2024-01-07T07:08:18;12.68;;;6.53;;
53775;SDS011;44276;49.534;6.378;2024-01-07T07:10:49;18.15;;;6.95;;
53775;SDS011;44276;49.534;6.378;2024-01-07T07:13:28;12.30;;;5.30;;
53775;SDS011;44276;49.534;6.378;2024-01-07T07:16:09;12.43;;;6.88;;
53775;SDS011;44276;49.534;6.378;2024-01-07T07:18:56;12.73;;;6.20;;
53775;SDS011;44276;49.534;6.378;2024-01-07T07:21:40;13.60;;;6.65;;
53775;SDS011;44276;49.534;6.378;2024-01-07T07:24:15;21.40;;;8.23;;
53775;SDS011;44276;49.534;6.378;2024-01-07T07:27:15;17.08;;;7.68;;
53775;SDS011;44276;49.534;6.378;2024-01-07T07:29:52;12.40;;;6.35;;
53775;SDS011;44276;49.534;6.378;2024-01-07T07:32:25;20.05;;;9.32;;
53775;SDS011;44276;49.534;6.378;2024-01-07T07:34:59;13.65;;;6.57;;
53775;SDS011;44276;49.534;6.378;2024-01-07T07:37:37;19.77;;;6.97;;
53775;SDS011;44276;49.534;6.378;2024-01-07T07:40:21;14.75;;;6.13;;
53775;SDS011;44276;49.534;6.378;2024-01-07T07:42:54;14.90;;;6.63;;
53775;SDS011;44276;49.534;6.378;2024-01-07T07:45:38;17.80;;;8.55;;
53775;SDS011;44276;49.534;6.378;2024-01-07T07:48:11;18.67;;;9.20;;
53775;SDS011;44276;49.534;6.378;2024-01-07T07:50:43;13.80;;;7.68;;
53775;SDS011;44276;49.534;6.378;2024-01-07T07:53:24;15.00;;;6.75;;
53775;SDS011;44276;49.534;6.378;2024-01-07T07:55:56;18.27;;;7.35;;
53775;SDS011;44276;49.534;6.378;2024-01-07T07:58:33;11.40;;;5.45;;
53775;SDS011;44276;49.534;6.378;2024-01-07T08:01:13;18.23;;;8.55;;
53775;SDS011;44276;49.534;6.378;2024-01-07T08:03:52;14.15;;;6.60;;
53775;SDS011;44276;49.534;6.378;2024-01-07T08:06:27;10.68;;;4.95;;
53775;SDS011;44276;49.534;6.378;2024-01-07T08:09:02;13.85;;;6.03;;
53775;SDS011;44276;49.534;6.378;2024-01-07T08:11:59;9.45;;;5.53;;
53775;SDS011;44276;49.534;6.378;2024-01-07T08:14:32;14.02;;;6.40;;
53775;SDS011;44276;49.534;6.378;2024-01-07T08:17:31;10.18;;;5.53;;
53775;SDS011;44276;49.534;6.378;2024-01-07T08:20:15;11.55;;;7.00;;
53775;SDS011;44276;49.534;6.378;2024-01-07T08:22:56;11.35;;;4.22;;
53775;SDS011;44276;49.534;6.378;2024-01-07T08:25:38;10.23;;;5.38;;
53775;SDS011;44276;49.534;6.378;2024-01-07T08:28:09;10.40;;;5.90;;
53775;SDS011;44276;49.534;6.378;2024-01-07T08:30:44;9.90;;;4.65;;
53775;SDS011;44276;49.534;6.378;2024-01-07T08:33:28;8.85;;;4.22;;
53775;SDS011;44276;49.534;6.378;2024-01-07T08:36:10;9.70;;;4.60;;
53775;SDS011;44276;49.534;6.378;2024-01-07T08:38:55;14.38;;;5.80;;
53775;SDS011;44276;49.534;6.378;2024-01-07T08:41:36;13.70;;;6.57;;
53775;SDS011;44276;49.534;6.378;2024-01-07T08:44:15;9.88;;;5.57;;
53775;SDS011;44276;49.534;6.378;2024-01-07T08:46:49;15.38;;;5.85;;
53775;SDS011;44276;49.534;6.378;2024-01-07T08:49:33;9.50;;;6.00;;
53775;SDS011;44276;49.534;6.378;2024-01-07T08:52:22;16.27;;;6.22;;
53775;SDS011;44276;49.534;6.378;2024-01-07T08:55:16;10.30;;;4.45;;
53775;SDS011;44276;49.534;6.378;2024-01-07T09:01:10;14.48;;;4.85;;
53775;SDS011;44276;49.534;6.378;2024-01-07T09:03:45;13.50;;;6.20;;
53775;SDS011;44276;49.534;6.378;2024-01-07T09:07:00;11.52;;;4.72;;
53775;SDS011;44276;49.534;6.378;2024-01-07T09:09:46;9.40;;;5.57;;
53775;SDS011;44276;49.534;6.378;2024-01-07T09:12:42;12.30;;;5.85;;
53775;SDS011;44276;49.534;6.378;2024-01-07T09:15:21;18.58;;;6.07;;
53775;SDS011;44276;49.534;6.378;2024-01-07T09:18:00;14.07;;;5.18;;
53775;SDS011;44276;49.534;6.378;2024-01-07T09:20:38;7.88;;;4.40;;
53775;SDS011;44276;49.534;6.378;2024-01-07T09:23:20;10.38;;;5.18;;
53775;SDS011;44276;49.534;6.378;2024-01-07T09:26:28;11.07;;;4.75;;
53775;SDS011;44276;49.534;6.378;2024-01-07T09:29:07;8.45;;;5.00;;
53775;SDS011;44276;49.534;6.378;2024-01-07T09:31:45;10.23;;;5.38;;
53775;SDS011;44276;49.534;6.378;2024-01-07T09:34:19;10.63;;;4.95;;
53775;SDS011;44276;49.534;6.378;2024-01-07T09:37:05;9.73;;;4.63;;
53775;SDS011;44276;49.534;6.378;2024-01-07T09:39:48;13.95;;;7.13;;
53775;SDS011;44276;49.534;6.378;2024-01-07T09:42:23;16.00;;;7.97;;
53775;SDS011;44276;49.534;6.378;2024-01-07T09:45:03;15.57;;;8.32;;
53775;SDS011;44276;49.534;6.378;2024-01-07T09:47:46;10.20;;;5.68;;
53775;SDS011;44276;49.534;6.378;2024-01-07T09:50:33;11.75;;;5.50;;
53775;SDS011;44276;49.534;6.378;2024-01-07T09:53:19;13.27;;;5.97;;
53775;SDS011;44276;49.534;6.378;2024-01-07T09:56:06;7.57;;;4.53;;
53775;SDS011;44276;49.534;6.378;2024-01-07T09:58:53;13.60;;;5.18;;
53775;SDS011;44276;49.534;6.378;2024-01-07T10:01:56;12.88;;;7.53;;
53775;SDS011;44276;49.534;6.378;2024-01-07T10:07:53;6.63;;;5.18;;
53775;SDS011;44276;49.534;6.378;2024-01-07T10:10:28;6.32;;;3.95;;
53775;SDS011;44276;49.534;6.378;2024-01-07T10:12:57;9.70;;;6.13;;
53775;SDS011;44276;49.534;6.378;2024-01-07T10:15:34;7.68;;;4.47;;
53775;SDS011;44276;49.534;6.378;2024-01-07T10:18:46;9.63;;;6.07;;
53775;SDS011;44276;49.534;6.378;2024-01-07T10:21:38;9.05;;;3.90;;
53775;SDS011;44276;49.534;6.378;2024-01-07T10:24:24;6.03;;;4.00;;
53775;SDS011;44276;49.534;6.378;2024-01-07T10:27:15;7.28;;;4.22;;
53775;SDS011;44276;49.534;6.378;2024-01-07T10:29:58;7.28;;;3.65;;
53775;SDS011;44276;49.534;6.378;2024-01-07T10:32:40;8.07;;;3.80;;
53775;SDS011;44276;49.534;6.378;2024-01-07T10:35:16;7.72;;;3.80;;
53775;SDS011;44276;49.534;6.378;2024-01-07T10:38:05;13.88;;;4.15;;
53775;SDS011;44276;49.534;6.378;2024-01-07T10:40:39;6.05;;;3.80;;
53775;SDS011;44276;49.534;6.378;2024-01-07T10:43:20;7.43;;;3.20;;
53775;SDS011;44276;49.534;6.378;2024-01-07T10:46:00;5.05;;;2.85;;
53775;SDS011;44276;49.534;6.378;2024-01-07T10:48:32;7.53;;;3.80;;
53775;SDS011;44276;49.534;6.378;2024-01-07T10:51:08;6.53;;;3.60;;
53775;SDS011;44276;49.534;6.378;2024-01-07T10:53:39;7.28;;;3.28;;
53775;SDS011;44276;49.534;6.378;2024-01-07T10:56:15;7.75;;;3.85;;
53775;SDS011;44276;49.534;6.378;2024-01-07T10:58:50;4.45;;;2.90;;
53775;SDS011;44276;49.534;6.378;2024-01-07T11:01:21;6.07;;;2.75;;
53775;SDS011;44276;49.534;6.378;2024-01-07T11:03:55;4.15;;;2.95;;
53775;SDS011;44276;49.534;6.378;2024-01-07T11:06:31;4.80;;;2.70;;
53775;SDS011;44276;49.534;6.378;2024-01-07T11:09:12;6.72;;;3.75;;
53775;SDS011;44276;49.534;6.378;2024-01-07T11:11:52;4.70;;;2.83;;
53775;SDS011;44276;49.534;6.378;2024-01-07T11:14:34;6.63;;;2.80;;
53775;SDS011;44276;49.534;6.378;2024-01-07T11:17:09;5.90;;;3.17;;
53775;SDS011;44276;49.534;6.378;2024-01-07T11:19:37;4.50;;;2.40;;
53775;SDS011;44276;49.534;6.378;2024-01-07T11:22:21;6.57;;;2.67;;
53775;SDS011;44276;49.534;6.378;2024-01-07T11:24:55;5.07;;;3.13;;
53775;SDS011;44276;49.534;6.378;2024-01-07T11:27:28;3.35;;;2.33;;
53775;SDS011;44276;49.534;6.378;2024-01-07T11:30:01;3.33;;;2.13;;
53775;SDS011;44276;49.534;6.378;2024-01-07T11:32:33;6.07;;;3.33;;
53775;SDS011;44276;49.534;6.378;2024-01-07T11:35:05;7.30;;;2.88;;
53775;SDS011;44276;49.534;6.378;2024-01-07T11:37:34;3.25;;;1.67;;
53775;SDS011;44276;49.534;6.378;2024-01-07T11:40:04;5.18;;;2.80;;
53775;SDS011;44276;49.534;6.378;2024-01-07T11:42:36;2.70;;;1.88;;
53775;SDS011;44276;49.534;6.378;2024-01-07T11:45:05;3.30;;;1.75;;
53775;SDS011;44276;49.534;6.378;2024-01-07T11:47:37;3.35;;;1.90;;
53775;SDS011;44276;49.534;6.378;2024-01-07T11:50:05;4.97;;;2.25;;
53775;SDS011;44276;49.534;6.378;2024-01-07T11:52:34;6.72;;;2.97;;
53775;SDS011;44276;49.534;6.378;2024-01-07T11:55:05;3.70;;;2.45;;
53775;SDS011;44276;49.534;6.378;2024-01-07T11:57:36;5.95;;;3.13;;
53775;SDS011;44276;49.534;6.378;2024-01-07T12:00:05;7.13;;;3.65;;
53775;SDS011;44276;49.534;6.378;2024-01-07T12:02:35;4.22;;;2.58;;
53775;SDS011;44276;49.534;6.378;2024-01-07T12:05:04;6.63;;;2.90;;
53775;SDS011;44276;49.534;6.378;2024-01-07T12:07:32;5.13;;;2.92;;
53775;SDS011;44276;49.534;6.378;2024-01-07T12:10:03;6.03;;;2.85;;
53775;SDS011;44276;49.534;6.378;2024-01-07T12:12:39;6.05;;;2.95;;
53775;SDS011;44276;49.534;6.378;2024-01-07T12:15:09;5.05;;;2.17;;
53775;SDS011;44276;49.534;6.378;2024-01-07T12:17:40;5.57;;;2.80;;
53775;SDS011;44276;49.534;6.378;2024-01-07T12:20:09;4.97;;;3.22;;
53775;SDS011;44276;49.534;6.378;2024-01-07T12:22:38;5.43;;;2.78;;
53775;SDS011;44276;49.534;6.378;2024-01-07T12:25:09;6.13;;;3.85;;
53775;SDS011;44276;49.534;6.378;2024-01-07T12:27:42;6.90;;;5.10;;
53775;SDS011;44276;49.534;6.378;2024-01-07T12:30:14;4.07;;;2.65;;
53775;SDS011;44276;49.534;6.378;2024-01-07T12:32:43;7.43;;;3.95;;
53775;SDS011;44276;49.534;6.378;2024-01-07T12:35:12;7.30;;;3.63;;
53775;SDS011;44276;49.534;6.378;2024-01-07T12:37:41;6.72;;;3.63;;
53775;SDS011;44276;49.534;6.378;2024-01-07T12:40:12;7.65;;;4.32;;
53775;SDS011;44276;49.534;6.378;2024-01-07T12:42:43;6.10;;;3.97;;
53775;SDS011;44276;49.534;6.378;2024-01-07T12:45:12;15.93;;;6.82;;
53775;SDS011;44276;49.534;6.378;2024-01-07T12:47:42;9.15;;;5.20;;
53775;SDS011;44276;49.534;6.378;2024-01-07T12:50:12;10.48;;;5.50;;
53775;SDS011;44276;49.534;6.378;2024-01-07T12:52:42;7.20;;;3.63;;
53775;SDS011;44276;49.534;6.378;2024-01-07T12:55:12;10.38;;;5.00;;
53775;SDS011;44276;49.534;6.378;2024-01-07T12:57:41;10.88;;;4.85;;
53775;SDS011;44276;49.534;6.378;2024-01-07T13:00:10;9.05;;;4.70;;
53775;SDS011;44276;49.534;6.378;2024-01-07T13:02:40;7.85;;;4.40;;
53775;SDS011;44276;49.534;6.378;2024-01-07T13:05:08;6.47;;;4.13;;
53775;SDS011;44276;49.534;6.378;2024-01-07T13:07:37;12.68;;;6.57;;
53775;SDS011;44276;49.534;6.378;2024-01-07T13:10:06;8.68;;;4.47;;
53775;SDS011;44276;49.534;6.378;2024-01-07T13:12:39;12.68;;;5.47;;
53775;SDS011;44276;49.534;6.378;2024-01-07T13:15:17;10.75;;;4.40;;
53775;SDS011;44276;49.534;6.378;2024-01-07T13:17:46;11.27;;;4.68;;
53775;SDS011;44276;49.534;6.378;2024-01-07T13:20:14;10.35;;;5.35;;
53775;SDS011;44276;49.534;6.378;2024-01-07T13:22:46;10.02;;;5.90;;
53775;SDS011;44276;49.534;6.378;2024-01-07T13:25:14;8.35;;;4.80;;
53775;SDS011;44276;49.534;6.378;2024-01-07T13:27:43;10.52;;;5.82;;
53775;SDS011;44276;49.534;6.378;2024-01-07T13:30:11;12.30;;;5.68;;
53775;SDS011;44276;49.534;6.378;2024-01-07T13:32:44;9.32;;;4.65;;
53775;SDS011;44276;49.534;6.378;2024-01-07T13:35:13;13.90;;;5.75;;
53775;SDS011;44276;49.534;6.378;2024-01-07T13:37:42;11.20;;;6.00;;
53775;SDS011;44276;49.534;6.378;2024-01-07T13:40:10;10.35;;;5.25;;
53775;SDS011;44276;49.534;6.378;2024-01-07T13:42:41;10.27;;;4.35;;
53775;SDS011;44276;49.534;6.378;2024-01-07T13:45:09;13.63;;;5.72;;
53775;SDS011;44276;49.534;6.378;2024-01-07T13:47:40;14.43;;;4.70;;
53775;SDS011;44276;49.534;6.378;2024-01-07T13:50:09;12.23;;;5.32;;
53775;SDS011;44276;49.534;6.378;2024-01-07T13:52:38;12.68;;;6.53;;
53775;SDS011;44276;49.534;6.378;2024-01-07T13:55:07;13.60;;;6.28;;
53775;SDS011;44276;49.534;6.378;2024-01-07T13:57:37;12.23;;;6.47;;
53775;SDS011;44276;49.534;6.378;2024-01-07T14:00:08;12.35;;;6.30;;
53775;SDS011;44276;49.534;6.378;2024-01-07T14:02:46;12.15;;;6.20;;
53775;SDS011;44276;49.534;6.378;2024-01-07T14:05:17;11.02;;;4.60;;
53775;SDS011;44276;49.534;6.378;2024-01-07T14:07:46;11.77;;;5.53;;
53775;SDS011;44276;49.534;6.378;2024-01-07T14:10:14;9.07;;;4.75;;
53775;SDS011;44276;49.534;6.378;2024-01-07T14:12:45;9.45;;;5.60;;
53775;SDS011;44276;49.534;6.378;2024-01-07T14:15:14;10.00;;;5.03;;
53775;SDS011;44276;49.534;6.378;2024-01-07T14:17:44;9.30;;;5.28;;
53775;SDS011;44276;49.534;6.378;2024-01-07T14:20:13;10.27;;;5.57;;
53775;SDS011;44276;49.534;6.378;2024-01-07T14:22:42;10.73;;;5.32;;
53775;SDS011;44276;49.534;6.378;2024-01-07T14:25:11;10.93;;;5.22;;
53775;SDS011;44276;49.534;6.378;2024-01-07T14:27:40;9.68;;;5.70;;
53775;SDS011;44276;49.534;6.378;2024-01-07T14:30:10;10.65;;;6.30;;
53775;SDS011;44276;49.534;6.378;2024-01-07T14:32:40;12.20;;;7.05;;
53775;SDS011;44276;49.534;6.378;2024-01-07T14:35:10;9.52;;;6.13;;
53775;SDS011;44276;49.534;6.378;2024-01-07T14:37:39;7.90;;;5.25;;
53775;SDS011;44276;49.534;6.378;2024-01-07T14:40:09;12.75;;;6.80;;
53775;SDS011;44276;49.534;6.378;2024-01-07T14:42:38;14.25;;;9.07;;
53775;SDS011;44276;49.534;6.378;2024-01-07T14:45:07;19.98;;;8.93;;
53775;SDS011;44276;49.534;6.378;2024-01-07T14:47:36;15.18;;;6.25;;
53775;SDS011;44276;49.534;6.378;2024-01-07T14:50:05;15.07;;;7.03;;
53775;SDS011;44276;49.534;6.378;2024-01-07T14:52:35;11.10;;;6.28;;
53775;SDS011;44276;49.534;6.378;2024-01-07T14:55:06;11.25;;;6.63;;
53775;SDS011;44276;49.534;6.378;2024-01-07T14:57:39;13.43;;;6.20;;
53775;SDS011;44276;49.534;6.378;2024-01-07T15:00:10;13.35;;;7.18;;
53775;SDS011;44276;49.534;6.378;2024-01-07T15:02:40;13.52;;;6.25;;
53775;SDS011;44276;49.534;6.378;2024-01-07T15:05:08;13.40;;;6.90;;
53775;SDS011;44276;49.534;6.378;2024-01-07T15:07:40;12.05;;;7.20;;
53775;SDS011;44276;49.534;6.378;2024-01-07T15:10:17;14.00;;;6.75;;
53775;SDS011;44276;49.534;6.378;2024-01-07T15:12:46;15.77;;;8.00;;
53775;SDS011;44276;49.534;6.378;2024-01-07T15:15:27;14.43;;;8.80;;
53775;SDS011;44276;49.534;6.378;2024-01-07T15:17:58;15.07;;;7.28;;
53775;SDS011;44276;49.534;6.378;2024-01-07T15:20:39;13.55;;;6.85;;
53775;SDS011;44276;49.534;6.378;2024-01-07T15:23:25;19.98;;;7.45;;
53775;SDS011;44276;49.534;6.378;2024-01-07T15:25:55;13.10;;;5.88;;
53775;SDS011;44276;49.534;6.378;2024-01-07T15:28:43;13.63;;;7.75;;
53775;SDS011;44276;49.534;6.378;2024-01-07T15:31:27;14.57;;;7.78;;
53775;SDS011;44276;49.534;6.378;2024-01-07T15:34:03;12.38;;;6.07;;
53775;SDS011;44276;49.534;6.378;2024-01-07T15:36:37;14.40;;;8.48;;
53775;SDS011;44276;49.534;6.378;2024-01-07T15:39:07;15.60;;;8.35;;